createdAt,value
2022-09-05T00:01:44.480Z,22.20
2022-09-05T00:04:38.357Z,22.20
2022-09-05T00:07:36.091Z,22.20
2022-09-05T00:10:35.996Z,22.20
2022-09-05T00:13:09.945Z,22.20
2022-09-05T00:15:40.390Z,22.20
2022-09-05T00:22:51.271Z,22.10
2022-09-05T00:24:21.183Z,22.20
2022-09-05T00:25:30.691Z,22.20
2022-09-05T00:28:53.238Z,22.10
2022-09-05T00:31:57.499Z,22.20
2022-09-05T00:34:47.978Z,22.20
2022-09-05T00:37:35.252Z,22.20
2022-09-05T00:40:27.213Z,22.10
2022-09-05T00:43:04.616Z,22.10
2022-09-05T00:45:45.201Z,22.10
2022-09-05T00:48:30.867Z,22.10
2022-09-05T00:51:34.969Z,22.20
2022-09-05T00:54:02.171Z,22.20
2022-09-05T00:57:01.295Z,22.20
2022-09-05T00:59:31.071Z,22.10
2022-09-05T01:02:17.091Z,22.10
2022-09-05T01:05:19.225Z,22.10
2022-09-05T01:07:58.215Z,22.10
2022-09-05T01:10:49.534Z,22.10
2022-09-05T01:13:38.735Z,22.10
2022-09-05T01:16:32.361Z,22.10
2022-09-05T01:19:18.360Z,22.10
2022-09-05T01:22:16.246Z,22.10
2022-09-05T01:25:06.147Z,22.00
2022-09-05T01:29:14.053Z,22.00
2022-09-05T01:30:55.768Z,22.00
2022-09-05T01:33:35.131Z,21.90
2022-09-05T01:36:21.927Z,21.90
2022-09-05T01:40:11.007Z,21.80
2022-09-05T01:42:03.791Z,21.90
2022-09-05T01:44:37.537Z,21.90
2022-09-05T01:47:13.869Z,21.80
2022-09-05T01:50:03.082Z,21.80
2022-09-05T01:53:17.065Z,21.80
2022-09-05T01:56:25.145Z,21.80
2022-09-05T01:59:01.356Z,21.80
2022-09-05T02:01:55.901Z,21.90
2022-09-05T02:04:56.195Z,21.90
2022-09-05T02:07:58.729Z,21.90
2022-09-05T02:10:55.170Z,21.90
2022-09-05T02:13:42.480Z,21.90
2022-09-05T02:16:18.531Z,21.90
2022-09-05T02:19:10.031Z,21.90
2022-09-05T02:21:56.360Z,21.90
2022-09-05T02:24:35.705Z,22.00
2022-09-05T02:27:48.941Z,22.00
2022-09-05T02:30:24.527Z,22.00
2022-09-05T02:33:17.283Z,22.00
2022-09-05T02:36:13.775Z,22.00
2022-09-05T02:43:57.214Z,21.90
2022-09-05T02:45:17.868Z,21.90
2022-09-05T02:46:04.542Z,21.90
2022-09-05T02:48:31.971Z,21.90
2022-09-05T02:57:30.217Z,21.80
2022-09-05T02:57:37.624Z,21.80
2022-09-05T02:57:42.313Z,21.90
2022-09-05T03:00:13.415Z,21.90
2022-09-05T03:02:58.515Z,21.90
2022-09-05T03:05:37.473Z,21.90
2022-09-05T03:08:07.561Z,21.90
2022-09-05T03:10:54.654Z,21.80
2022-09-05T03:13:31.068Z,21.90
2022-09-05T03:16:28.598Z,21.80
2022-09-05T03:19:23.546Z,21.80
2022-09-05T03:22:09.669Z,21.80
2022-09-05T03:25:01.562Z,21.90
2022-09-05T03:27:54.178Z,21.90
2022-09-05T03:30:25.473Z,21.90
2022-09-05T03:32:52.694Z,21.80
2022-09-05T03:35:38.432Z,21.90
2022-09-05T03:38:34.262Z,21.90
2022-09-05T03:41:30.254Z,22.00
2022-09-05T03:44:24.838Z,21.90
2022-09-05T03:47:19.060Z,21.90
2022-09-05T03:53:17.995Z,21.90
2022-09-05T03:57:13.297Z,21.90
2022-09-05T03:57:15.047Z,21.90
2022-09-05T03:59:22.139Z,21.90
2022-09-05T04:03:29.432Z,21.80
2022-09-05T04:08:11.061Z,21.80
2022-09-05T04:08:40.945Z,21.80
2022-09-05T04:11:39.111Z,21.80
2022-09-05T04:14:19.241Z,21.70
2022-09-05T04:16:56.025Z,21.80
2022-09-05T04:19:43.429Z,21.70
2022-09-05T04:23:00.962Z,21.70
2022-09-05T04:25:56.905Z,21.70
2022-09-05T04:28:53.187Z,21.70
2022-09-05T04:31:31.061Z,21.70
2022-09-05T04:34:17.310Z,21.70
2022-09-05T04:36:46.819Z,21.60
2022-09-05T04:39:20.104Z,21.70
2022-09-05T04:42:24.353Z,21.60
2022-09-05T04:45:03.574Z,21.50
2022-09-05T04:47:41.011Z,21.50
2022-09-05T04:50:21.874Z,21.50
2022-09-05T04:52:54.704Z,21.50
2022-09-05T04:55:32.485Z,21.40
2022-09-05T04:58:10.932Z,21.40
2022-09-05T05:06:05.503Z,21.30
2022-09-05T05:06:16.460Z,21.30
2022-09-05T05:06:47.616Z,21.40
2022-09-05T05:09:23.789Z,21.30
2022-09-05T05:16:23.826Z,21.30
2022-09-05T05:18:13.924Z,21.30
2022-09-05T05:18:36.665Z,21.40
2022-09-05T05:21:20.145Z,21.30
2022-09-05T05:24:19.953Z,21.40
2022-09-05T05:27:01.849Z,21.40
2022-09-05T05:29:43.509Z,21.40
2022-09-05T05:32:34.601Z,21.40
2022-09-05T05:35:16.074Z,21.40
2022-09-05T05:37:55.982Z,21.40
2022-09-05T05:40:30.354Z,21.40
2022-09-05T05:43:17.013Z,21.40
2022-09-05T05:45:44.424Z,21.30
2022-09-05T05:48:21.782Z,21.40
2022-09-05T05:50:54.988Z,21.40
2022-09-05T05:53:43.503Z,21.40
2022-09-05T05:56:39.878Z,21.40
2022-09-05T05:59:34.510Z,21.40
2022-09-05T06:02:25.291Z,21.50
2022-09-05T06:05:08.538Z,21.50
2022-09-05T06:09:15.669Z,21.60
2022-09-05T06:14:55.456Z,21.70
2022-09-05T06:15:09.131Z,21.80
2022-09-05T06:18:14.428Z,21.90
2022-09-05T06:22:08.806Z,22.00
2022-09-05T06:24:41.398Z,22.10
2022-09-05T06:27:36.962Z,22.20
2022-09-05T06:30:25.420Z,22.30
2022-09-05T06:32:58.847Z,22.40
2022-09-05T06:35:45.004Z,22.50
2022-09-05T06:38:27.340Z,22.50
2022-09-05T06:41:25.343Z,22.60
2022-09-05T06:44:31.324Z,22.60
2022-09-05T06:47:23.760Z,22.60
2022-09-05T06:50:27.112Z,22.90
2022-09-05T06:53:13.944Z,23.30
2022-09-05T06:56:15.767Z,23.40
2022-09-05T06:58:53.270Z,23.50
2022-09-05T07:01:44.811Z,23.50
2022-09-05T07:05:23.721Z,23.50
2022-09-05T07:07:45.776Z,23.50
2022-09-05T07:10:40.700Z,23.50
2022-09-05T07:13:22.779Z,23.60
2022-09-05T07:16:26.590Z,23.60
2022-09-05T07:19:28.125Z,23.60
2022-09-05T07:22:47.893Z,23.60
2022-09-05T07:25:18.210Z,23.60
2022-09-05T07:28:26.866Z,23.50
2022-09-05T07:30:39.137Z,23.50
2022-09-05T07:33:06.744Z,23.40
2022-09-05T07:35:41.452Z,23.40
2022-09-05T07:38:20.035Z,23.20
2022-09-05T07:41:26.481Z,23.20
2022-09-05T07:43:59.176Z,23.10
2022-09-05T07:46:33.794Z,23.10
2022-09-05T07:49:05.897Z,23.20
2022-09-05T07:56:48.019Z,23.10
2022-09-05T07:56:58.768Z,23.20
2022-09-05T07:57:30.931Z,23.20
2022-09-05T08:00:26.951Z,23.20
2022-09-05T08:02:59.482Z,23.40
2022-09-05T08:05:36.014Z,23.50
2022-09-05T08:08:09.218Z,23.60
2022-09-05T08:11:23.587Z,23.70
2022-09-05T08:14:43.916Z,23.80
2022-09-05T08:17:20.917Z,23.90
2022-09-05T08:20:19.685Z,24.10
2022-09-05T08:22:59.153Z,24.30
2022-09-05T08:25:56.402Z,24.40
2022-09-05T08:28:45.667Z,24.60
2022-09-05T08:31:19.485Z,24.70
2022-09-05T08:33:51.349Z,24.70
2022-09-05T08:36:26.651Z,24.90
2022-09-05T08:38:54.299Z,25.10
2022-09-05T08:41:43.136Z,25.30
2022-09-05T08:46:39.569Z,25.50
2022-09-05T08:47:32.416Z,25.70
2022-09-05T08:50:38.282Z,25.90
2022-09-05T08:53:26.751Z,26.00
2022-09-05T08:56:24.253Z,26.10
2022-09-05T08:59:32.030Z,26.20
2022-09-05T09:02:47.256Z,26.20
2022-09-05T09:06:12.347Z,26.30
2022-09-05T09:08:42.941Z,26.30
2022-09-05T09:11:28.643Z,26.40
2022-09-05T09:14:31.189Z,26.50
2022-09-05T09:17:35.956Z,26.60
2022-09-05T09:20:37.604Z,26.70
2022-09-05T09:23:37.806Z,26.80
2022-09-05T09:26:13.415Z,27.00
2022-09-05T09:29:08.819Z,27.00
2022-09-05T09:31:44.097Z,27.10
2022-09-05T09:34:26.241Z,27.20
2022-09-05T09:37:05.609Z,27.30
2022-09-05T09:39:52.292Z,27.30
2022-09-05T09:42:47.574Z,27.30
2022-09-05T09:45:45.803Z,27.40
2022-09-05T09:48:22.164Z,27.50
2022-09-05T09:51:08.525Z,27.60
2022-09-05T09:53:54.791Z,27.80
2022-09-05T09:56:31.215Z,27.80
2022-09-05T09:59:14.090Z,27.90
2022-09-05T10:04:31.043Z,28.00
2022-09-05T10:10:34.106Z,27.90
2022-09-05T10:10:43.657Z,27.70
2022-09-05T10:12:33.720Z,27.70
2022-09-05T10:15:31.489Z,27.60
2022-09-05T10:18:35.454Z,27.60
2022-09-05T10:21:29.967Z,27.50
2022-09-05T10:24:15.679Z,27.50
2022-09-05T10:27:10.245Z,27.40
2022-09-05T10:30:14.901Z,27.30
2022-09-05T10:35:17.538Z,27.20
2022-09-05T10:36:27.031Z,27.20
2022-09-05T10:39:19.331Z,27.30
2022-09-05T10:42:03.455Z,27.30
2022-09-05T10:44:41.013Z,27.20
2022-09-05T10:47:26.668Z,27.20
2022-09-05T10:50:30.291Z,27.30
2022-09-05T10:53:16.889Z,27.30
2022-09-05T10:55:59.902Z,27.40
2022-09-05T11:00:41.102Z,27.40
2022-09-05T11:02:22.048Z,27.50
2022-09-05T11:04:46.685Z,27.50
2022-09-05T11:07:36.280Z,27.50
2022-09-05T11:10:21.237Z,27.60
2022-09-05T11:13:11.289Z,27.60
2022-09-05T11:16:10.304Z,27.60
2022-09-05T11:18:58.900Z,27.60
2022-09-05T11:21:48.879Z,27.60
2022-09-05T11:24:41.773Z,27.60
2022-09-05T11:27:25.242Z,27.60
2022-09-05T11:30:02.542Z,27.60
2022-09-05T11:38:47.710Z,27.60
2022-09-05T11:39:48.085Z,27.60
2022-09-05T11:40:08.557Z,27.60
2022-09-05T11:42:52.726Z,27.70
2022-09-05T11:45:39.968Z,27.70
2022-09-05T11:48:23.006Z,27.70
2022-09-05T11:51:34.906Z,27.70
2022-09-05T11:54:31.493Z,27.70
2022-09-05T11:57:33.412Z,27.70
2022-09-05T12:00:31.092Z,27.70
2022-09-05T12:03:58.103Z,27.80
2022-09-05T12:06:54.873Z,27.70
2022-09-05T12:09:46.367Z,27.70
2022-09-05T12:12:44.006Z,27.70
2022-09-05T12:15:27.576Z,27.70
2022-09-05T12:18:21.535Z,27.60
2022-09-05T12:21:25.494Z,27.50
2022-09-05T12:24:54.996Z,27.50
2022-09-05T12:27:41.241Z,27.60
2022-09-05T12:30:00.496Z,27.60
2022-09-05T12:36:01.196Z,27.70
2022-09-05T12:36:11.165Z,27.80
2022-09-05T12:40:52.053Z,27.90
2022-09-05T12:41:44.158Z,27.90
2022-09-05T12:44:52.231Z,27.90
2022-09-05T12:47:23.236Z,28.00
2022-09-05T12:50:15.753Z,27.90
2022-09-05T12:52:50.402Z,27.90
2022-09-05T12:55:17.416Z,27.90
2022-09-05T13:02:58.006Z,28.00
2022-09-05T13:03:06.579Z,28.00
2022-09-05T13:03:53.332Z,27.90
2022-09-05T13:06:29.355Z,27.90
2022-09-05T13:09:05.386Z,27.80
2022-09-05T13:14:56.314Z,27.80
2022-09-05T13:14:58.315Z,27.80
2022-09-05T13:17:44.241Z,27.80
2022-09-05T13:20:15.417Z,27.70
2022-09-05T13:22:48.477Z,27.70
2022-09-05T13:25:25.069Z,27.70
2022-09-05T13:27:58.287Z,27.70
2022-09-05T13:34:42.835Z,27.80
2022-09-05T13:38:03.040Z,27.80
2022-09-05T13:38:07.412Z,27.80
2022-09-05T13:39:06.310Z,27.90
2022-09-05T13:41:37.341Z,27.90
2022-09-05T13:44:26.706Z,28.00
2022-09-05T13:47:43.683Z,28.10
2022-09-05T13:50:13.714Z,28.10
2022-09-05T13:52:46.313Z,28.20
2022-09-05T13:55:29.932Z,28.20
2022-09-05T13:58:16.067Z,28.20
2022-09-05T14:00:43.344Z,28.20
2022-09-05T14:03:40.941Z,28.10
2022-09-05T14:06:26.439Z,28.10
2022-09-05T14:12:29.560Z,28.20
2022-09-05T14:15:17.675Z,28.20
2022-09-05T14:18:24.616Z,28.20
2022-09-05T14:21:18.145Z,28.20
2022-09-05T14:23:56.354Z,28.20
2022-09-05T14:26:32.053Z,28.20
2022-09-05T14:29:15.406Z,28.20
2022-09-05T14:37:41.385Z,28.20
2022-09-05T14:37:50.392Z,28.30
2022-09-05T14:38:15.353Z,28.30
2022-09-05T14:41:23.246Z,28.30
2022-09-05T14:43:59.339Z,28.20
2022-09-05T14:47:03.271Z,28.30
2022-09-05T14:50:04.216Z,28.20
2022-09-05T14:52:35.494Z,28.20
2022-09-05T14:55:20.060Z,28.10
2022-09-05T15:02:38.411Z,28.10
2022-09-05T15:02:44.276Z,28.10
2022-09-05T15:06:39.280Z,28.20
2022-09-05T15:12:16.499Z,28.20
2022-09-05T15:12:33.011Z,28.20
2022-09-05T15:15:22.889Z,28.20
2022-09-05T15:18:12.285Z,28.30
2022-09-05T15:20:42.476Z,28.30
2022-09-05T15:23:28.679Z,28.30
2022-09-05T15:26:17.248Z,28.40
2022-09-05T15:29:13.624Z,28.30
2022-09-05T15:31:42.017Z,28.30
2022-09-05T15:34:22.027Z,28.30
2022-09-05T15:36:49.321Z,28.20
2022-09-05T15:39:23.870Z,28.20
2022-09-05T15:41:53.228Z,28.20
2022-09-05T15:44:26.756Z,28.20
2022-09-05T15:47:03.577Z,28.20
2022-09-05T15:49:55.669Z,28.20
2022-09-05T15:52:27.278Z,28.20
2022-09-05T15:55:01.330Z,28.20
2022-09-05T15:57:37.794Z,28.10
2022-09-05T16:00:10.921Z,28.10
2022-09-05T16:02:43.550Z,28.00
2022-09-05T16:10:29.905Z,28.00
2022-09-05T16:10:45.941Z,27.90
2022-09-05T16:12:06.365Z,27.80
2022-09-05T16:14:36.576Z,27.70
2022-09-05T16:23:13.470Z,27.60
2022-09-05T16:23:16.570Z,27.60
2022-09-05T16:23:27.099Z,27.50
2022-09-05T16:26:25.700Z,27.50
2022-09-05T16:29:02.106Z,27.40
2022-09-05T16:31:39.966Z,27.20
2022-09-05T16:34:19.640Z,27.20
2022-09-05T16:37:08.259Z,27.10
2022-09-05T16:39:41.648Z,27.10
2022-09-05T16:42:46.476Z,27.00
2022-09-05T16:45:35.971Z,27.00
2022-09-05T16:48:22.772Z,27.00
2022-09-05T16:51:15.428Z,26.90
2022-09-05T16:53:58.537Z,26.90
2022-09-05T16:56:41.007Z,26.80
2022-09-05T16:59:21.009Z,26.80
2022-09-05T17:02:10.169Z,26.70
2022-09-05T17:05:03.177Z,26.70
2022-09-05T17:07:43.962Z,26.60
2022-09-05T17:10:16.754Z,26.60
2022-09-05T17:12:44.217Z,26.50
2022-09-05T17:15:16.606Z,26.50
2022-09-05T17:18:20.239Z,26.40
2022-09-05T17:20:35.719Z,26.40
2022-09-05T17:25:44.555Z,26.30
2022-09-05T17:29:26.821Z,26.20
2022-09-05T17:29:27.002Z,26.20
2022-09-05T17:31:57.572Z,26.10
2022-09-05T17:34:34.429Z,26.00
2022-09-05T17:37:26.725Z,25.90
2022-09-05T17:40:22.922Z,25.90
2022-09-05T17:43:01.463Z,25.80
2022-09-05T17:45:53.242Z,25.80
2022-09-05T17:49:02.572Z,25.80
2022-09-05T17:51:35.085Z,25.70
2022-09-05T17:54:08.055Z,25.50
2022-09-05T17:56:45.595Z,25.50
2022-09-05T17:59:12.914Z,25.40
2022-09-05T18:01:45.061Z,25.40
2022-09-05T18:04:32.240Z,25.30
2022-09-05T18:07:01.099Z,25.20
2022-09-05T18:09:37.160Z,25.10
2022-09-05T18:13:13.054Z,25.10
2022-09-05T18:15:22.980Z,25.00
2022-09-05T18:17:52.849Z,24.90
2022-09-05T18:20:39.544Z,24.90
2022-09-05T18:23:39.757Z,24.90
2022-09-05T18:29:57.528Z,24.80
2022-09-05T18:32:12.425Z,24.80
2022-09-05T18:34:42.775Z,24.80
2022-09-05T18:37:36.844Z,24.70
2022-09-05T18:40:07.873Z,24.60
2022-09-05T18:42:41.196Z,24.50
2022-09-05T18:45:16.258Z,24.40
2022-09-05T18:47:59.018Z,24.30
2022-09-05T18:50:32.349Z,24.10
2022-09-05T18:53:10.616Z,24.00
2022-09-05T18:56:13.089Z,24.00
2022-09-05T18:58:53.107Z,24.00
2022-09-05T19:01:50.400Z,23.90
2022-09-05T19:04:39.377Z,23.70
2022-09-05T19:07:17.347Z,23.50
2022-09-05T19:10:33.733Z,23.30
2022-09-05T19:13:16.877Z,23.20
2022-09-05T19:16:47.225Z,23.10
2022-09-05T19:19:05.330Z,22.90
2022-09-05T19:21:33.160Z,22.70
2022-09-05T19:24:06.960Z,22.50
2022-09-05T19:26:34.871Z,22.50
2022-09-05T19:36:20.803Z,22.40
2022-09-05T19:36:57.370Z,22.30
2022-09-05T19:37:13.587Z,22.30
2022-09-05T19:37:44.645Z,22.30
2022-09-05T19:47:00.531Z,22.30
2022-09-05T19:47:27.710Z,22.30
2022-09-05T19:47:40.837Z,22.30
2022-09-05T19:49:10.924Z,22.20
2022-09-05T19:51:43.539Z,22.20
2022-09-05T19:54:35.753Z,22.10
2022-09-05T19:57:09.837Z,22.10
2022-09-05T19:59:39.890Z,22.10
2022-09-05T20:02:24.884Z,22.00
2022-09-05T20:04:53.374Z,21.90
2022-09-05T20:07:26.612Z,21.90
2022-09-05T20:09:55.396Z,21.90
2022-09-05T20:12:30.725Z,21.90
2022-09-05T20:15:36.789Z,21.80
2022-09-05T20:18:18.521Z,21.70
2022-09-05T20:21:04.542Z,21.60
2022-09-05T20:23:32.380Z,21.60
2022-09-05T20:26:01.131Z,21.60
2022-09-05T20:28:35.949Z,21.70
2022-09-05T20:31:08.417Z,21.70
2022-09-05T20:34:25.948Z,21.80
2022-09-05T20:43:11.622Z,21.80
2022-09-05T20:43:16.801Z,21.90
2022-09-05T20:43:25.125Z,21.90
2022-09-05T20:45:48.453Z,21.80
2022-09-05T20:54:05.001Z,21.90
2022-09-05T20:54:21.530Z,21.80
2022-09-05T20:54:31.064Z,21.80
2022-09-05T20:57:16.326Z,21.80
2022-09-05T20:59:44.489Z,21.80
2022-09-05T21:02:27.251Z,21.80
2022-09-05T21:05:21.060Z,21.80
2022-09-05T21:08:01.096Z,21.70
2022-09-05T21:10:55.830Z,21.70
2022-09-05T21:13:28.217Z,21.70
2022-09-05T21:15:56.265Z,21.70
2022-09-05T21:18:33.821Z,21.60
2022-09-05T21:21:27.819Z,21.60
2022-09-05T21:24:08.989Z,21.70
2022-09-05T21:26:47.928Z,21.60
2022-09-05T21:29:23.084Z,21.60
2022-09-05T21:32:00.010Z,21.60
2022-09-05T21:34:31.219Z,21.70
2022-09-05T21:37:07.028Z,21.70
2022-09-05T21:39:58.792Z,21.70
2022-09-05T21:46:31.652Z,21.70
2022-09-05T21:47:47.726Z,21.80
2022-09-05T21:48:15.489Z,21.80
2022-09-05T21:50:58.339Z,21.80
2022-09-05T21:59:02.060Z,21.80
2022-09-05T21:59:26.231Z,21.90
2022-09-05T21:59:37.110Z,21.90
2022-09-05T22:02:01.453Z,21.90
2022-09-05T22:04:28.921Z,21.80
2022-09-05T22:07:02.062Z,21.90
2022-09-05T22:09:29.703Z,21.90
2022-09-05T22:11:56.790Z,21.90
2022-09-05T22:14:25.042Z,21.90
2022-09-05T22:17:01.480Z,21.90
2022-09-05T22:19:37.720Z,21.90
2022-09-05T22:22:18.169Z,21.80
2022-09-05T22:25:12.793Z,21.80
2022-09-05T22:27:44.452Z,21.80
2022-09-05T22:30:13.566Z,21.90
2022-09-05T22:32:40.868Z,21.80
2022-09-05T22:35:26.957Z,21.70
2022-09-05T22:38:10.507Z,21.70
2022-09-05T22:40:40.436Z,21.70
2022-09-05T22:43:09.642Z,21.70
2022-09-05T22:45:38.203Z,21.60
2022-09-05T22:48:24.015Z,21.60
2022-09-05T22:50:51.195Z,21.60
2022-09-05T22:53:18.545Z,21.50
2022-09-05T22:55:45.759Z,21.50
2022-09-05T22:58:14.805Z,21.50
2022-09-05T23:00:44.504Z,21.50
2022-09-05T23:03:11.849Z,21.50
2022-09-05T23:05:38.976Z,21.40
2022-09-05T23:08:07.073Z,21.40
2022-09-05T23:10:36.074Z,21.40
2022-09-05T23:13:05.415Z,21.40
2022-09-05T23:15:32.647Z,21.40
2022-09-05T23:18:00.481Z,21.40
2022-09-05T23:20:30.401Z,21.40
2022-09-05T23:23:01.762Z,21.30
2022-09-05T23:25:28.985Z,21.40
2022-09-05T23:27:56.209Z,21.40
2022-09-05T23:30:23.444Z,21.30
2022-09-05T23:32:52.072Z,21.40
2022-09-05T23:35:19.656Z,21.50
2022-09-05T23:37:48.252Z,21.50
2022-09-05T23:40:17.897Z,21.50
2022-09-05T23:42:55.971Z,21.50
2022-09-05T23:45:24.917Z,21.50
2022-09-05T23:47:52.126Z,21.40
2022-09-05T23:50:20.085Z,21.50
2022-09-05T23:52:47.903Z,21.50
2022-09-05T23:55:17.353Z,21.40
2022-09-05T23:57:44.968Z,21.40
